createdAt,value
2023-02-14T00:02:15.230Z,38.60
2023-02-14T00:07:09.735Z,39.20
2023-02-14T00:12:02.970Z,41.40
2023-02-14T00:16:56.270Z,40.60
2023-02-14T00:21:50.337Z,36.73
2023-02-14T00:26:45.556Z,41.43
2023-02-14T00:31:39.458Z,64.63
2023-02-14T00:36:33.166Z,49.20
2023-02-14T00:41:26.514Z,44.30
2023-02-14T00:46:23.841Z,49.00
2023-02-14T00:51:18.845Z,45.13
2023-02-14T00:56:12.214Z,42.63
2023-02-14T01:01:05.821Z,37.53
2023-02-14T01:06:00.748Z,33.77
2023-02-14T01:10:56.302Z,34.73
2023-02-14T01:15:51.759Z,32.97
2023-02-14T01:20:45.185Z,45.77
2023-02-14T01:25:40.790Z,52.20
2023-02-14T01:30:34.534Z,45.23
2023-02-14T01:35:28.625Z,52.90
2023-02-14T01:40:22.181Z,40.30
2023-02-14T01:45:21.174Z,42.30
2023-02-14T01:50:19.603Z,47.03
2023-02-14T01:55:17.242Z,57.83
2023-02-14T02:00:29.646Z,45.07
2023-02-14T02:05:25.132Z,40.83
2023-02-14T02:10:18.939Z,34.70
2023-02-14T02:15:12.318Z,38.80
2023-02-14T02:21:03.237Z,41.97
2023-02-14T02:26:35.586Z,41.17
2023-02-14T02:32:08.053Z,36.50
2023-02-14T02:37:22.678Z,41.83
2023-02-14T02:42:28.171Z,46.53
2023-02-14T02:47:29.944Z,44.07
2023-02-14T02:52:49.303Z,39.83
2023-02-14T02:57:47.940Z,35.63
2023-02-14T03:03:02.684Z,35.27
2023-02-14T03:07:59.308Z,39.67
2023-02-14T03:13:39.978Z,33.97
2023-02-14T03:19:02.592Z,35.07
2023-02-14T03:24:04.496Z,41.07
2023-02-14T03:29:04.002Z,39.73
2023-02-14T03:34:02.729Z,37.83
2023-02-14T03:39:05.425Z,38.17
2023-02-14T03:44:03.344Z,37.23
2023-02-14T03:49:01.347Z,40.97
2023-02-14T03:53:59.143Z,39.93
2023-02-14T03:58:57.728Z,40.03
2023-02-14T04:03:53.899Z,45.83
2023-02-14T04:08:47.818Z,46.40
2023-02-14T04:13:42.888Z,44.17
2023-02-14T04:18:54.656Z,41.53
2023-02-14T04:23:47.861Z,45.08
2023-02-14T04:28:42.637Z,49.90
2023-02-14T04:33:35.842Z,52.13
2023-02-14T04:38:29.900Z,48.90
2023-02-14T04:43:23.091Z,43.33
2023-02-14T04:48:17.817Z,42.63
2023-02-14T04:53:11.049Z,42.77
2023-02-14T04:58:04.419Z,44.97
2023-02-14T05:02:57.620Z,42.83
2023-02-14T05:07:52.313Z,48.17
2023-02-14T05:12:45.553Z,52.63
2023-02-14T05:17:38.882Z,56.00
2023-02-14T05:22:32.055Z,53.27
2023-02-14T05:27:26.762Z,47.67
2023-02-14T05:32:20.202Z,61.33
2023-02-14T05:37:13.670Z,52.23
2023-02-14T05:42:07.023Z,48.07
2023-02-14T05:47:01.745Z,52.87
2023-02-14T05:51:55.543Z,61.13
2023-02-14T05:56:51.861Z,49.73
2023-02-14T06:01:45.327Z,64.83
2023-02-14T06:06:42.699Z,54.33
2023-02-14T06:11:37.120Z,60.77
2023-02-14T06:16:30.615Z,58.47
2023-02-14T06:21:23.865Z,53.93
2023-02-14T06:26:18.495Z,63.13
2023-02-14T06:31:17.601Z,68.97
2023-02-14T06:36:11.069Z,58.17
2023-02-14T06:41:17.255Z,65.13
2023-02-14T06:46:12.261Z,69.30
2023-02-14T06:51:05.926Z,52.80
2023-02-14T06:55:59.126Z,53.90
2023-02-14T07:00:52.414Z,49.17
2023-02-14T07:05:47.025Z,54.57
2023-02-14T07:10:40.482Z,50.50
2023-02-14T07:15:34.083Z,50.20
2023-02-14T07:20:27.781Z,60.13
2023-02-14T07:25:22.647Z,59.97
2023-02-14T07:30:16.447Z,69.27
2023-02-14T07:35:10.346Z,65.97
2023-02-14T07:40:03.973Z,50.93
2023-02-14T07:44:58.585Z,51.40
2023-02-14T07:49:51.892Z,45.03
2023-02-14T07:54:45.316Z,45.03
2023-02-14T07:59:38.707Z,44.93
2023-02-14T08:04:33.997Z,44.40
2023-02-14T08:09:27.264Z,41.73
2023-02-14T08:14:20.568Z,54.00
2023-02-14T08:19:14.011Z,47.77
2023-02-14T08:24:09.116Z,43.67
2023-02-14T08:29:03.840Z,45.50
2023-02-14T08:33:57.636Z,43.50
2023-02-14T08:38:55.955Z,42.47
2023-02-14T08:43:51.672Z,40.90
2023-02-14T08:48:45.752Z,42.40
2023-02-14T08:53:53.455Z,44.37
2023-02-14T08:58:47.109Z,45.23
2023-02-14T09:03:42.287Z,44.33
2023-02-14T09:08:36.061Z,48.20
2023-02-14T09:13:31.998Z,48.53
2023-02-14T09:18:28.440Z,39.63
2023-02-14T09:23:23.397Z,43.87
2023-02-14T09:28:16.968Z,36.67
2023-02-14T09:33:15.018Z,33.37
2023-02-14T09:38:20.612Z,36.63
2023-02-14T09:43:25.124Z,33.58
2023-02-14T09:48:29.775Z,36.20
2023-02-14T09:53:31.550Z,32.13
2023-02-14T09:58:35.371Z,34.90
2023-02-14T10:04:01.414Z,36.53
2023-02-14T10:09:03.804Z,34.13
2023-02-14T10:14:04.821Z,31.83
2023-02-14T10:19:03.002Z,35.35
2023-02-14T10:24:03.203Z,37.70
2023-02-14T10:29:01.287Z,31.77
2023-02-14T10:34:10.457Z,34.53
2023-02-14T10:39:16.554Z,34.88
2023-02-14T10:44:38.845Z,40.17
2023-02-14T10:49:48.576Z,35.00
2023-02-14T10:54:47.233Z,34.00
2023-02-14T10:59:50.278Z,32.88
2023-02-14T11:04:57.836Z,30.08
2023-02-14T11:09:54.143Z,31.15
2023-02-14T11:14:49.054Z,33.88
2023-02-14T11:19:58.714Z,43.80
2023-02-14T11:25:05.668Z,34.03
2023-02-14T11:30:02.499Z,33.45
2023-02-14T11:35:00.916Z,27.95
2023-02-14T11:39:56.701Z,31.48
2023-02-14T11:44:58.767Z,32.40
2023-02-14T11:50:02.194Z,42.42
2023-02-14T11:54:57.760Z,33.80
2023-02-14T11:59:55.367Z,36.42
2023-02-14T12:04:54.672Z,36.03
2023-02-14T12:10:06.134Z,37.90
2023-02-14T12:15:24.143Z,38.42
2023-02-14T12:20:24.761Z,37.47
2023-02-14T12:30:34.489Z,39.20
2023-02-14T12:35:44.285Z,40.53
2023-02-14T12:40:55.032Z,39.70
2023-02-14T12:46:15.099Z,49.38
2023-02-14T12:51:17.797Z,42.65
2023-02-14T12:56:34.210Z,45.45
2023-02-14T13:01:54.085Z,42.40
2023-02-14T13:06:51.960Z,43.40
2023-02-14T13:12:01.711Z,44.10
2023-02-14T13:17:02.022Z,42.90
2023-02-14T13:21:59.850Z,47.35
2023-02-14T13:26:59.519Z,51.15
2023-02-14T13:31:58.285Z,52.55
2023-02-14T13:36:52.425Z,51.75
2023-02-14T13:41:45.923Z,50.63
2023-02-14T13:46:53.488Z,49.30
2023-02-14T13:51:50.807Z,44.80
2023-02-14T13:56:44.917Z,45.45
2023-02-14T14:01:41.963Z,44.15
2023-02-14T14:07:14.583Z,44.88
2023-02-14T14:12:43.157Z,47.00
2023-02-14T14:17:39.004Z,39.65
2023-02-14T14:22:36.070Z,42.35
2023-02-14T14:27:35.901Z,41.72
2023-02-14T14:32:31.595Z,41.70
2023-02-14T14:37:28.980Z,39.15
2023-02-14T14:42:24.268Z,40.60
2023-02-14T14:47:24.490Z,38.15
2023-02-14T14:52:40.591Z,59.05
2023-02-14T14:57:36.610Z,44.50
2023-02-14T15:02:32.266Z,48.38
2023-02-14T15:07:30.361Z,60.97
2023-02-14T15:12:44.015Z,212.90
2023-02-14T15:17:40.650Z,377.90
2023-02-14T15:23:11.353Z,295.23
2023-02-14T16:03:52.452Z,68.43
2023-02-14T17:11:39.513Z,107.40
2023-02-14T17:36:29.001Z,154.90
2023-02-14T18:14:01.259Z,72.83
2023-02-14T18:25:58.362Z,74.10
2023-02-14T18:38:52.918Z,72.83
2023-02-14T18:45:19.801Z,71.57
2023-02-14T18:57:27.870Z,122.63
2023-02-14T19:02:35.018Z,79.27
2023-02-14T19:08:04.529Z,76.80
2023-02-14T19:13:36.363Z,78.63
2023-02-14T19:18:41.923Z,69.83
2023-02-14T19:23:38.382Z,57.97
2023-02-14T19:28:39.375Z,55.53
2023-02-14T19:33:35.744Z,59.57
2023-02-14T19:38:36.127Z,55.27
2023-02-14T19:43:32.896Z,61.20
2023-02-14T19:48:26.427Z,105.07
2023-02-14T19:53:29.351Z,71.10
2023-02-14T19:58:29.214Z,102.00
2023-02-14T20:03:22.794Z,52.47
2023-02-14T20:08:16.592Z,57.37
2023-02-14T20:13:10.428Z,45.43
2023-02-14T20:18:12.605Z,46.53
2023-02-14T20:23:09.909Z,41.23
2023-02-14T20:28:07.546Z,49.47
2023-02-14T20:33:01.405Z,47.03
2023-02-14T20:37:56.352Z,53.10
2023-02-14T20:42:52.916Z,48.07
2023-02-14T20:47:49.593Z,44.53
2023-02-14T20:52:55.349Z,41.47
2023-02-14T20:57:52.872Z,53.30
2023-02-14T21:02:47.208Z,50.77
2023-02-14T21:07:40.481Z,45.77
2023-02-14T21:12:34.146Z,40.63
2023-02-14T21:17:29.323Z,40.30
2023-02-14T21:22:23.291Z,45.13
2023-02-14T21:27:17.024Z,36.17
2023-02-14T21:32:10.848Z,38.13
2023-02-14T21:37:07.901Z,42.27
2023-02-14T21:42:09.405Z,45.07
2023-02-14T21:47:05.854Z,45.17
2023-02-14T21:51:59.115Z,41.50
2023-02-14T21:56:54.044Z,48.10
2023-02-14T22:01:47.699Z,43.07
2023-02-14T22:06:43.920Z,50.77
2023-02-14T22:11:37.294Z,46.70
2023-02-14T22:16:32.585Z,48.13
2023-02-14T22:21:31.170Z,47.43
2023-02-14T22:26:26.200Z,43.60
2023-02-14T22:31:20.254Z,38.57
2023-02-14T22:36:15.555Z,41.43
2023-02-14T22:41:12.763Z,42.23
2023-02-14T22:46:08.141Z,48.60
2023-02-14T22:51:09.451Z,47.37
2023-02-14T22:56:12.649Z,48.73
2023-02-14T23:01:06.029Z,41.27
2023-02-14T23:05:59.691Z,42.43
2023-02-14T23:10:53.418Z,44.53
2023-02-14T23:16:05.705Z,42.40
2023-02-14T23:21:24.853Z,38.37
2023-02-14T23:26:21.471Z,45.07
2023-02-14T23:31:16.319Z,42.63
2023-02-14T23:36:09.964Z,46.07
2023-02-14T23:41:28.196Z,43.03
2023-02-14T23:46:23.262Z,38.27
2023-02-14T23:51:17.446Z,37.50
2023-02-14T23:56:11.003Z,42.47
